FW4326 Weather Reports


time (UTC)temp
C
wind
direction
speed
KPH
gust
KPH
rain 1hr
cm
rain 24hr
cm
rain mn
cm
humidity
%
barometer
mb
20260503180016 12 188 0.0 0.0 0.00 0.00 0.00 62 1012.6
20260503174503 12 262 0.0 1.6 0.00 0.00 0.00 59 1012.6
20260503173103 11 176 0.0 6.4 0.00 0.00 0.00 54 1012.6
20260503171554 11 249 0.0 8.0 0.00 0.00 0.00 37 1012.5
20260503081524 9 240 0.0 0.0 0.00 0.00 0.00 1 1011.1
20260503071502 9 277 0.0 0.0 0.00 0.00 0.00 1 1011.2
20260503070103 9 239 0.0 0.0 0.00 0.00 0.00 1 1011.2
20260503054603 9 256 0.0 0.0 0.00 0.00 0.00 1 1011.4
20260503053053 9 222 0.0 0.0 0.00 0.00 0.00 1 1011.4
20260503051550 9 253 0.0 0.0 0.00 0.00 0.00 1 1011.6
20260503050046 8 263 0.0 0.0 0.00 0.00 0.00 1 1011.5
20260503044546 8 228 0.0 1.6 0.00 0.00 0.00 1 1011.5
20260503043042 8 219 0.0 0.0 0.00 0.00 0.00 1 1011.4
20260503041533 8 209 1.6 8.0 0.00 0.00 0.00 4 1011.2
20260503040035 8 232 0.0 1.6 0.00 0.00 0.00 8 1011.2
20260503034534 8 224 0.0 0.0 0.00 0.00 0.00 12 1010.8
20260503033027 8 279 0.0 4.8 0.00 0.00 0.00 19 1010.6
20260503031515 9 276 0.0 0.0 0.00 0.00 0.00 24 1010.6
20260503030011 9 355 0.0 3.2 0.00 0.00 0.00 29 1010.5
20260503024509 9 118 0.0 0.0 0.00 0.00 0.00 32 1010.5
20260503023003 9 348 0.0 1.6 0.00 0.00 0.00 36 1010.5
20260503021604 10 237 0.0 9.7 0.00 0.00 0.00 39 1010.5
20260503020056 10 209 0.0 0.0 0.00 0.00 0.00 43 1010.5
20260503014550 10 218 1.6 17.7 0.00 0.00 0.00 45 1010.5
20260503013046 10 213 0.0 11.3 0.00 0.00 0.00 48 1010.7
20260503011544 11 205 3.2 12.9 0.00 0.00 0.00 53 1010.6
20260503010037 11 205 1.6 11.3 0.00 0.00 0.00 56 1010.5
20260503004532 11 208 3.2 11.3 0.00 0.00 0.00 61 1010.6
20260503003028 12 215 0.0 11.3 0.00 0.00 0.00 63 1010.6
20260503001523 12 203 3.2 14.5 0.00 0.00 0.00 65 1010.6
20260503000020 13 204 3.2 12.9 0.00 0.00 0.00 67 1010.6
20260502234514 13 209 6.4 12.9 0.00 0.00 0.00 66 1010.7
20260502233010 14 207 0.0 12.9 0.00 0.00 0.00 67 1010.8
20260502231506 14 203 1.6 11.3 0.00 0.00 0.00 66 1010.9
20260502230001 14 203 0.0 11.3 0.00 0.00 0.00 62 1011.2
20260502224558 14 205 0.0 3.2 0.00 0.00 0.00 64 1011.3
20260502223055 14 207 0.0 11.3 0.00 0.00 0.00 65 1011.4
20260502221601 15 203 1.6 12.9 0.00 0.00 0.00 66 1011.7
20260502220046 15 225 0.0 8.0 0.00 0.00 0.00 61 1011.8
20260502214542 15 205 0.0 9.7 0.00 0.00 0.00 59 1011.8
20260502213048 14 203 0.0 9.7 0.00 0.00 0.00 63 1011.9
20260502211542 15 202 0.0 4.8 0.00 0.00 0.00 67 1012.1
20260502210027 16 203 0.0 6.4 0.00 0.00 0.00 68 1012.1
20260502204525 17 195 0.0 6.4 0.00 0.00 0.00 68 1012.0
20260502203023 17 169 0.0 11.3 0.00 0.00 0.00 68 1012.2
20260502201519 17 161 0.0 11.3 0.00 0.00 0.00 68 1012.2
20260502200016 17 207 0.0 4.8 0.00 0.00 0.00 68 1012.4
20260502194511 17 191 1.6 8.0 0.00 0.00 0.00 68 1012.5
20260502193011 17 181 0.0 0.0 0.00 0.00 0.00 67 1012.6
20260502191502 16 191 0.0 4.8 0.00 0.00 0.00 66 1012.6
20260502190058 16 170 0.0 4.8 0.00 0.00 0.00 64 1012.7
20260502184554 15 140 0.0 8.0 0.00 0.00 0.00 58 1012.8
20260502183049 13 157 0.0 3.2 0.00 0.00 0.00 44 1012.8
20260502181544 13 150 0.0 0.0 0.00 0.00 0.00 28 1012.8